sensor_id;sensor_type;location;lat;lon;timestamp;temperature;humidity
59041;DHT22;44825;53.200;6.448;2022-07-29T00:01:21;15.70;99.90
59041;DHT22;44825;53.200;6.448;2022-07-29T00:03:48;15.70;99.90
59041;DHT22;44825;53.200;6.448;2022-07-29T00:06:15;15.70;99.90
59041;DHT22;44825;53.200;6.448;2022-07-29T00:08:44;15.70;99.90
59041;DHT22;44825;53.200;6.448;2022-07-29T00:11:11;15.70;99.90
59041;DHT22;44825;53.200;6.448;2022-07-29T00:13:39;15.70;99.90
59041;DHT22;44825;53.200;6.448;2022-07-29T00:16:06;15.70;99.90
59041;DHT22;44825;53.200;6.448;2022-07-29T00:18:33;15.70;99.90
59041;DHT22;44825;53.200;6.448;2022-07-29T00:21:01;15.70;99.90
59041;DHT22;44825;53.200;6.448;2022-07-29T00:23:28;15.80;99.90
59041;DHT22;44825;53.200;6.448;2022-07-29T00:25:57;15.70;99.90
59041;DHT22;44825;53.200;6.448;2022-07-29T00:28:24;15.80;99.90
59041;DHT22;44825;53.200;6.448;2022-07-29T00:30:51;15.80;99.90
59041;DHT22;44825;53.200;6.448;2022-07-29T00:33:18;15.80;99.90
59041;DHT22;44825;53.200;6.448;2022-07-29T00:35:46;15.80;99.90
59041;DHT22;44825;53.200;6.448;2022-07-29T00:38:15;15.70;99.90
59041;DHT22;44825;53.200;6.448;2022-07-29T00:40:43;15.80;99.90
59041;DHT22;44825;53.200;6.448;2022-07-29T00:43:12;15.80;99.90
59041;DHT22;44825;53.200;6.448;2022-07-29T00:45:40;15.80;99.90
59041;DHT22;44825;53.200;6.448;2022-07-29T00:48:09;15.70;99.90
59041;DHT22;44825;53.200;6.448;2022-07-29T00:50:37;15.80;99.90
59041;DHT22;44825;53.200;6.448;2022-07-29T00:53:06;15.80;99.90
59041;DHT22;44825;53.200;6.448;2022-07-29T00:55:34;15.80;99.90
59041;DHT22;44825;53.200;6.448;2022-07-29T00:58:02;15.80;99.90
59041;DHT22;44825;53.200;6.448;2022-07-29T01:00:31;15.80;99.90
59041;DHT22;44825;53.200;6.448;2022-07-29T01:02:58;15.80;99.90
59041;DHT22;44825;53.200;6.448;2022-07-29T01:05:28;15.80;99.90
59041;DHT22;44825;53.200;6.448;2022-07-29T01:07:57;15.80;99.90
59041;DHT22;44825;53.200;6.448;2022-07-29T01:10:24;15.80;99.90
59041;DHT22;44825;53.200;6.448;2022-07-29T01:12:54;15.80;99.90
59041;DHT22;44825;53.200;6.448;2022-07-29T01:15:21;15.80;99.90
59041;DHT22;44825;53.200;6.448;2022-07-29T01:17:55;15.80;99.90
59041;DHT22;44825;53.200;6.448;2022-07-29T01:20:31;15.80;99.90
59041;DHT22;44825;53.200;6.448;2022-07-29T01:26:31;15.80;99.90
59041;DHT22;44825;53.200;6.448;2022-07-29T01:29:07;15.90;99.90
59041;DHT22;44825;53.200;6.448;2022-07-29T01:31:43;15.80;99.90
59041;DHT22;44825;53.200;6.448;2022-07-29T01:34:18;15.80;99.90
59041;DHT22;44825;53.200;6.448;2022-07-29T01:36:50;15.80;99.90
59041;DHT22;44825;53.200;6.448;2022-07-29T01:39:20;15.80;99.90
59041;DHT22;44825;53.200;6.448;2022-07-29T01:42:01;15.80;99.90
59041;DHT22;44825;53.200;6.448;2022-07-29T01:44:37;15.80;99.90
59041;DHT22;44825;53.200;6.448;2022-07-29T01:47:11;15.80;99.90
59041;DHT22;44825;53.200;6.448;2022-07-29T01:49:43;15.80;99.90
59041;DHT22;44825;53.200;6.448;2022-07-29T01:52:20;15.70;99.90
59041;DHT22;44825;53.200;6.448;2022-07-29T01:54:53;15.70;99.90
59041;DHT22;44825;53.200;6.448;2022-07-29T01:57:25;15.70;99.90
59041;DHT22;44825;53.200;6.448;2022-07-29T01:59:55;15.70;99.90
59041;DHT22;44825;53.200;6.448;2022-07-29T02:02:23;15.70;99.90
59041;DHT22;44825;53.200;6.448;2022-07-29T02:04:53;15.70;99.90
59041;DHT22;44825;53.200;6.448;2022-07-29T02:07:23;15.70;99.90
59041;DHT22;44825;53.200;6.448;2022-07-29T02:09:55;15.70;99.90
59041;DHT22;44825;53.200;6.448;2022-07-29T02:12:24;15.70;99.90
59041;DHT22;44825;53.200;6.448;2022-07-29T02:14:55;15.70;99.90
59041;DHT22;44825;53.200;6.448;2022-07-29T02:17:26;15.70;99.90
59041;DHT22;44825;53.200;6.448;2022-07-29T02:19:59;15.70;99.90
59041;DHT22;44825;53.200;6.448;2022-07-29T02:22:28;15.70;99.90
59041;DHT22;44825;53.200;6.448;2022-07-29T02:24:57;15.70;99.90
59041;DHT22;44825;53.200;6.448;2022-07-29T02:27:26;15.70;99.90
59041;DHT22;44825;53.200;6.448;2022-07-29T02:29:57;15.70;99.90
59041;DHT22;44825;53.200;6.448;2022-07-29T02:32:26;15.70;99.90
59041;DHT22;44825;53.200;6.448;2022-07-29T02:34:55;15.70;99.90
59041;DHT22;44825;53.200;6.448;2022-07-29T02:37:24;15.70;99.90
59041;DHT22;44825;53.200;6.448;2022-07-29T02:39:53;15.70;99.90
59041;DHT22;44825;53.200;6.448;2022-07-29T02:42:22;15.70;99.90
59041;DHT22;44825;53.200;6.448;2022-07-29T02:44:50;15.70;99.90
59041;DHT22;44825;53.200;6.448;2022-07-29T02:47:22;15.70;99.90
59041;DHT22;44825;53.200;6.448;2022-07-29T02:49:55;15.70;99.90
59041;DHT22;44825;53.200;6.448;2022-07-29T02:52:26;15.70;99.90
59041;DHT22;44825;53.200;6.448;2022-07-29T02:54:56;15.70;99.90
59041;DHT22;44825;53.200;6.448;2022-07-29T02:57:32;15.70;99.90
59041;DHT22;44825;53.200;6.448;2022-07-29T03:00:03;15.70;99.90
59041;DHT22;44825;53.200;6.448;2022-07-29T03:02:36;15.70;99.90
59041;DHT22;44825;53.200;6.448;2022-07-29T03:05:06;15.70;99.90
59041;DHT22;44825;53.200;6.448;2022-07-29T03:07:35;15.70;99.90
59041;DHT22;44825;53.200;6.448;2022-07-29T03:10:05;15.70;99.90
59041;DHT22;44825;53.200;6.448;2022-07-29T03:12:33;15.70;99.90
59041;DHT22;44825;53.200;6.448;2022-07-29T03:15:02;15.70;99.90
59041;DHT22;44825;53.200;6.448;2022-07-29T03:17:30;15.70;99.90
59041;DHT22;44825;53.200;6.448;2022-07-29T03:20:00;15.70;99.90
59041;DHT22;44825;53.200;6.448;2022-07-29T03:22:28;15.70;99.90
59041;DHT22;44825;53.200;6.448;2022-07-29T03:24:55;15.70;99.90
59041;DHT22;44825;53.200;6.448;2022-07-29T03:27:23;15.70;99.90
59041;DHT22;44825;53.200;6.448;2022-07-29T03:29:50;15.70;99.90
59041;DHT22;44825;53.200;6.448;2022-07-29T03:32:17;15.60;99.90
59041;DHT22;44825;53.200;6.448;2022-07-29T03:34:44;15.70;99.90
59041;DHT22;44825;53.200;6.448;2022-07-29T03:37:13;15.70;99.90
59041;DHT22;44825;53.200;6.448;2022-07-29T03:39:41;15.60;99.90
59041;DHT22;44825;53.200;6.448;2022-07-29T03:42:12;15.60;99.90
59041;DHT22;44825;53.200;6.448;2022-07-29T03:44:43;15.70;99.90
59041;DHT22;44825;53.200;6.448;2022-07-29T03:47:13;15.60;99.90
59041;DHT22;44825;53.200;6.448;2022-07-29T03:49:42;15.60;99.90
59041;DHT22;44825;53.200;6.448;2022-07-29T03:52:10;15.60;99.90
59041;DHT22;44825;53.200;6.448;2022-07-29T03:54:39;15.60;99.90
59041;DHT22;44825;53.200;6.448;2022-07-29T03:57:07;15.60;99.90
59041;DHT22;44825;53.200;6.448;2022-07-29T03:59:37;15.60;99.90
59041;DHT22;44825;53.200;6.448;2022-07-29T04:02:09;15.60;99.90
59041;DHT22;44825;53.200;6.448;2022-07-29T04:04:38;15.60;99.90
59041;DHT22;44825;53.200;6.448;2022-07-29T04:07:05;15.60;99.90
59041;DHT22;44825;53.200;6.448;2022-07-29T04:09:32;15.60;99.90
59041;DHT22;44825;53.200;6.448;2022-07-29T04:12:01;15.60;99.90
59041;DHT22;44825;53.200;6.448;2022-07-29T04:14:28;15.60;99.90
59041;DHT22;44825;53.200;6.448;2022-07-29T04:16:56;15.70;99.90
59041;DHT22;44825;53.200;6.448;2022-07-29T04:19:23;15.70;99.90
59041;DHT22;44825;53.200;6.448;2022-07-29T04:21:51;15.60;99.90
59041;DHT22;44825;53.200;6.448;2022-07-29T04:24:18;15.70;99.90
59041;DHT22;44825;53.200;6.448;2022-07-29T04:26:46;15.60;99.90
59041;DHT22;44825;53.200;6.448;2022-07-29T04:29:15;15.60;99.90
59041;DHT22;44825;53.200;6.448;2022-07-29T04:31:43;15.70;99.90
59041;DHT22;44825;53.200;6.448;2022-07-29T04:34:11;15.60;99.90
59041;DHT22;44825;53.200;6.448;2022-07-29T04:36:38;15.60;99.90
59041;DHT22;44825;53.200;6.448;2022-07-29T04:39:05;15.70;99.90
59041;DHT22;44825;53.200;6.448;2022-07-29T04:41:33;15.70;99.90
59041;DHT22;44825;53.200;6.448;2022-07-29T04:44:00;15.70;99.90
59041;DHT22;44825;53.200;6.448;2022-07-29T04:46:32;15.70;99.90
59041;DHT22;44825;53.200;6.448;2022-07-29T04:48:59;15.70;99.90
59041;DHT22;44825;53.200;6.448;2022-07-29T04:51:27;15.70;99.90
59041;DHT22;44825;53.200;6.448;2022-07-29T04:53:54;15.70;99.90
59041;DHT22;44825;53.200;6.448;2022-07-29T04:56:21;15.70;99.90
59041;DHT22;44825;53.200;6.448;2022-07-29T04:58:49;15.80;99.90
59041;DHT22;44825;53.200;6.448;2022-07-29T05:01:16;15.70;99.90
59041;DHT22;44825;53.200;6.448;2022-07-29T05:03:45;15.80;99.90
59041;DHT22;44825;53.200;6.448;2022-07-29T05:06:12;15.80;99.90
59041;DHT22;44825;53.200;6.448;2022-07-29T05:08:40;15.80;99.90
59041;DHT22;44825;53.200;6.448;2022-07-29T05:11:07;15.80;99.90
59041;DHT22;44825;53.200;6.448;2022-07-29T05:13:34;15.80;99.90
59041;DHT22;44825;53.200;6.448;2022-07-29T05:16:02;15.80;99.90
59041;DHT22;44825;53.200;6.448;2022-07-29T05:18:29;15.90;99.90
59041;DHT22;44825;53.200;6.448;2022-07-29T05:20:58;15.90;99.90
59041;DHT22;44825;53.200;6.448;2022-07-29T05:23:25;15.90;99.90
59041;DHT22;44825;53.200;6.448;2022-07-29T05:25:52;15.90;99.90
59041;DHT22;44825;53.200;6.448;2022-07-29T05:28:19;16.00;99.90
59041;DHT22;44825;53.200;6.448;2022-07-29T05:30:47;16.00;99.90
59041;DHT22;44825;53.200;6.448;2022-07-29T05:33:15;16.00;99.90
59041;DHT22;44825;53.200;6.448;2022-07-29T05:35:42;16.00;99.90
59041;DHT22;44825;53.200;6.448;2022-07-29T05:38:11;16.10;99.90
59041;DHT22;44825;53.200;6.448;2022-07-29T05:40:38;16.10;99.90
59041;DHT22;44825;53.200;6.448;2022-07-29T05:43:06;16.10;99.90
59041;DHT22;44825;53.200;6.448;2022-07-29T05:45:33;16.10;99.90
59041;DHT22;44825;53.200;6.448;2022-07-29T05:48:00;16.20;99.90
59041;DHT22;44825;53.200;6.448;2022-07-29T05:50:28;16.20;99.90
59041;DHT22;44825;53.200;6.448;2022-07-29T05:52:55;16.20;99.90
59041;DHT22;44825;53.200;6.448;2022-07-29T05:55:24;16.30;99.90
59041;DHT22;44825;53.200;6.448;2022-07-29T05:57:52;16.30;99.90
59041;DHT22;44825;53.200;6.448;2022-07-29T06:00:19;16.30;99.90
59041;DHT22;44825;53.200;6.448;2022-07-29T06:02:46;16.30;99.90
59041;DHT22;44825;53.200;6.448;2022-07-29T06:05:14;16.30;99.90
59041;DHT22;44825;53.200;6.448;2022-07-29T06:07:42;16.40;99.90
59041;DHT22;44825;53.200;6.448;2022-07-29T06:10:09;16.40;99.90
59041;DHT22;44825;53.200;6.448;2022-07-29T06:12:37;16.40;99.90
59041;DHT22;44825;53.200;6.448;2022-07-29T06:15:06;16.50;99.90
59041;DHT22;44825;53.200;6.448;2022-07-29T06:17:33;16.60;99.90
59041;DHT22;44825;53.200;6.448;2022-07-29T06:20:01;16.70;99.90
59041;DHT22;44825;53.200;6.448;2022-07-29T06:22:28;16.70;99.80
59041;DHT22;44825;53.200;6.448;2022-07-29T06:24:56;16.80;99.90
59041;DHT22;44825;53.200;6.448;2022-07-29T06:27:23;16.90;99.90
59041;DHT22;44825;53.200;6.448;2022-07-29T06:29:52;17.00;99.90
59041;DHT22;44825;53.200;6.448;2022-07-29T06:32:20;17.20;99.60
59041;DHT22;44825;53.200;6.448;2022-07-29T06:34:47;17.20;99.70
59041;DHT22;44825;53.200;6.448;2022-07-29T06:37:15;17.20;99.70
59041;DHT22;44825;53.200;6.448;2022-07-29T06:39:43;17.30;99.60
59041;DHT22;44825;53.200;6.448;2022-07-29T06:42:10;17.30;99.10
59041;DHT22;44825;53.200;6.448;2022-07-29T06:44:38;17.30;99.10
59041;DHT22;44825;53.200;6.448;2022-07-29T06:47:06;17.40;99.10
59041;DHT22;44825;53.200;6.448;2022-07-29T06:49:34;17.50;99.00
59041;DHT22;44825;53.200;6.448;2022-07-29T06:52:01;17.60;98.70
59041;DHT22;44825;53.200;6.448;2022-07-29T06:54:29;17.70;98.40
59041;DHT22;44825;53.200;6.448;2022-07-29T06:56:57;17.70;97.90
59041;DHT22;44825;53.200;6.448;2022-07-29T06:59:25;17.70;98.00
59041;DHT22;44825;53.200;6.448;2022-07-29T07:01:52;17.70;97.90
59041;DHT22;44825;53.200;6.448;2022-07-29T07:04:21;17.60;97.80
59041;DHT22;44825;53.200;6.448;2022-07-29T07:06:48;17.60;98.00
59041;DHT22;44825;53.200;6.448;2022-07-29T07:09:15;17.60;98.10
59041;DHT22;44825;53.200;6.448;2022-07-29T07:11:42;17.60;97.90
59041;DHT22;44825;53.200;6.448;2022-07-29T07:14:10;17.60;97.80
59041;DHT22;44825;53.200;6.448;2022-07-29T07:16:37;17.60;98.20
59041;DHT22;44825;53.200;6.448;2022-07-29T07:19:04;17.60;97.80
59041;DHT22;44825;53.200;6.448;2022-07-29T07:21:34;17.60;97.60
59041;DHT22;44825;53.200;6.448;2022-07-29T07:24:01;17.60;97.60
59041;DHT22;44825;53.200;6.448;2022-07-29T07:26:28;17.70;97.60
59041;DHT22;44825;53.200;6.448;2022-07-29T07:28:56;17.70;97.60
59041;DHT22;44825;53.200;6.448;2022-07-29T07:31:23;17.70;97.40
59041;DHT22;44825;53.200;6.448;2022-07-29T07:33:51;17.70;97.50
59041;DHT22;44825;53.200;6.448;2022-07-29T07:36:19;17.70;97.30
59041;DHT22;44825;53.200;6.448;2022-07-29T07:38:48;17.70;97.20
59041;DHT22;44825;53.200;6.448;2022-07-29T07:41:16;17.70;96.90
59041;DHT22;44825;53.200;6.448;2022-07-29T07:43:43;17.70;97.00
59041;DHT22;44825;53.200;6.448;2022-07-29T07:46:10;17.70;96.60
59041;DHT22;44825;53.200;6.448;2022-07-29T07:48:38;17.70;96.60
59041;DHT22;44825;53.200;6.448;2022-07-29T07:51:05;17.70;96.50
59041;DHT22;44825;53.200;6.448;2022-07-29T07:53:33;17.70;96.60
59041;DHT22;44825;53.200;6.448;2022-07-29T07:56:02;17.70;96.70
59041;DHT22;44825;53.200;6.448;2022-07-29T07:58:30;17.80;96.60
59041;DHT22;44825;53.200;6.448;2022-07-29T08:00:57;17.80;96.60
59041;DHT22;44825;53.200;6.448;2022-07-29T08:03:24;17.70;96.70
59041;DHT22;44825;53.200;6.448;2022-07-29T08:05:52;17.80;96.90
59041;DHT22;44825;53.200;6.448;2022-07-29T08:08:20;17.80;96.90
59041;DHT22;44825;53.200;6.448;2022-07-29T08:10:47;17.80;96.90
59041;DHT22;44825;53.200;6.448;2022-07-29T08:13:24;17.80;96.80
59041;DHT22;44825;53.200;6.448;2022-07-29T08:15:53;17.80;96.80
59041;DHT22;44825;53.200;6.448;2022-07-29T08:18:25;17.80;97.10
59041;DHT22;44825;53.200;6.448;2022-07-29T08:20:53;17.80;97.20
59041;DHT22;44825;53.200;6.448;2022-07-29T08:23:21;17.90;97.00
59041;DHT22;44825;53.200;6.448;2022-07-29T08:25:48;17.90;96.90
59041;DHT22;44825;53.200;6.448;2022-07-29T08:28:16;17.90;97.20
59041;DHT22;44825;53.200;6.448;2022-07-29T08:30:45;17.90;97.30
59041;DHT22;44825;53.200;6.448;2022-07-29T08:33:12;18.00;97.30
59041;DHT22;44825;53.200;6.448;2022-07-29T08:35:39;18.00;97.40
59041;DHT22;44825;53.200;6.448;2022-07-29T08:38:07;18.00;97.30
59041;DHT22;44825;53.200;6.448;2022-07-29T08:40:35;18.10;97.10
59041;DHT22;44825;53.200;6.448;2022-07-29T08:43:06;18.10;96.70
59041;DHT22;44825;53.200;6.448;2022-07-29T08:45:42;18.10;96.60
59041;DHT22;44825;53.200;6.448;2022-07-29T08:48:13;18.10;96.60
59041;DHT22;44825;53.200;6.448;2022-07-29T08:50:41;18.10;96.30
59041;DHT22;44825;53.200;6.448;2022-07-29T08:53:11;18.10;96.00
59041;DHT22;44825;53.200;6.448;2022-07-29T08:55:39;18.10;96.00
59041;DHT22;44825;53.200;6.448;2022-07-29T08:58:07;18.10;95.70
59041;DHT22;44825;53.200;6.448;2022-07-29T09:00:37;18.10;95.60
59041;DHT22;44825;53.200;6.448;2022-07-29T09:03:08;18.10;96.00
59041;DHT22;44825;53.200;6.448;2022-07-29T09:05:38;18.20;96.20
59041;DHT22;44825;53.200;6.448;2022-07-29T09:08:08;18.20;96.10
59041;DHT22;44825;53.200;6.448;2022-07-29T09:10:35;18.20;96.60
59041;DHT22;44825;53.200;6.448;2022-07-29T09:13:03;18.20;96.50
59041;DHT22;44825;53.200;6.448;2022-07-29T09:15:31;18.30;96.70
59041;DHT22;44825;53.200;6.448;2022-07-29T09:17:58;18.40;96.20
59041;DHT22;44825;53.200;6.448;2022-07-29T09:20:26;18.40;96.10
59041;DHT22;44825;53.200;6.448;2022-07-29T09:23:15;18.50;95.90
59041;DHT22;44825;53.200;6.448;2022-07-29T09:25:42;18.60;96.10
59041;DHT22;44825;53.200;6.448;2022-07-29T09:28:11;18.70;96.30
59041;DHT22;44825;53.200;6.448;2022-07-29T09:30:50;18.80;96.20
59041;DHT22;44825;53.200;6.448;2022-07-29T09:33:17;18.80;96.10
59041;DHT22;44825;53.200;6.448;2022-07-29T09:35:44;18.90;95.90
59041;DHT22;44825;53.200;6.448;2022-07-29T09:38:12;18.80;95.40
59041;DHT22;44825;53.200;6.448;2022-07-29T09:40:41;18.90;95.20
59041;DHT22;44825;53.200;6.448;2022-07-29T09:43:22;18.80;95.00
59041;DHT22;44825;53.200;6.448;2022-07-29T09:45:50;18.80;94.90
59041;DHT22;44825;53.200;6.448;2022-07-29T09:48:19;18.80;94.90
59041;DHT22;44825;53.200;6.448;2022-07-29T09:50:47;18.80;94.50
59041;DHT22;44825;53.200;6.448;2022-07-29T09:53:30;18.80;94.60
59041;DHT22;44825;53.200;6.448;2022-07-29T09:55:59;18.80;94.70
59041;DHT22;44825;53.200;6.448;2022-07-29T09:58:27;18.70;94.80
59041;DHT22;44825;53.200;6.448;2022-07-29T10:00:55;18.70;94.80
59041;DHT22;44825;53.200;6.448;2022-07-29T10:03:22;18.70;94.90
59041;DHT22;44825;53.200;6.448;2022-07-29T10:06:05;18.70;95.40
59041;DHT22;44825;53.200;6.448;2022-07-29T10:08:32;18.70;94.90
59041;DHT22;44825;53.200;6.448;2022-07-29T10:11:11;18.70;94.90
59041;DHT22;44825;53.200;6.448;2022-07-29T10:13:40;18.70;95.40
59041;DHT22;44825;53.200;6.448;2022-07-29T10:16:08;18.70;95.90
59041;DHT22;44825;53.200;6.448;2022-07-29T10:18:38;18.70;96.30
59041;DHT22;44825;53.200;6.448;2022-07-29T10:21:06;18.70;96.00
59041;DHT22;44825;53.200;6.448;2022-07-29T10:23:34;18.70;96.00
59041;DHT22;44825;53.200;6.448;2022-07-29T10:26:02;18.80;96.40
59041;DHT22;44825;53.200;6.448;2022-07-29T10:28:31;18.80;95.60
59041;DHT22;44825;53.200;6.448;2022-07-29T10:31:01;18.80;95.50
59041;DHT22;44825;53.200;6.448;2022-07-29T10:33:41;18.90;95.90
59041;DHT22;44825;53.200;6.448;2022-07-29T10:36:21;19.00;96.20
59041;DHT22;44825;53.200;6.448;2022-07-29T10:38:55;19.00;96.00
59041;DHT22;44825;53.200;6.448;2022-07-29T10:41:41;19.00;96.40
59041;DHT22;44825;53.200;6.448;2022-07-29T10:44:18;19.00;96.60
59041;DHT22;44825;53.200;6.448;2022-07-29T10:46:47;19.00;96.20
59041;DHT22;44825;53.200;6.448;2022-07-29T10:49:15;19.00;96.10
59041;DHT22;44825;53.200;6.448;2022-07-29T10:52:00;19.00;95.80
59041;DHT22;44825;53.200;6.448;2022-07-29T10:54:48;19.00;96.10
59041;DHT22;44825;53.200;6.448;2022-07-29T10:57:23;19.00;95.80
59041;DHT22;44825;53.200;6.448;2022-07-29T11:00:26;19.00;95.70
59041;DHT22;44825;53.200;6.448;2022-07-29T11:02:54;19.00;96.50
59041;DHT22;44825;53.200;6.448;2022-07-29T11:05:24;19.00;96.30
59041;DHT22;44825;53.200;6.448;2022-07-29T11:08:21;19.10;96.40
59041;DHT22;44825;53.200;6.448;2022-07-29T11:10:50;19.10;96.00
59041;DHT22;44825;53.200;6.448;2022-07-29T11:13:48;19.10;96.10
59041;DHT22;44825;53.200;6.448;2022-07-29T11:16:19;19.10;95.50
59041;DHT22;44825;53.200;6.448;2022-07-29T11:19:19;19.10;95.40
59041;DHT22;44825;53.200;6.448;2022-07-29T11:21:46;19.10;95.60
59041;DHT22;44825;53.200;6.448;2022-07-29T11:24:18;19.10;95.50
59041;DHT22;44825;53.200;6.448;2022-07-29T11:27:08;19.10;96.00
59041;DHT22;44825;53.200;6.448;2022-07-29T11:29:39;19.10;96.10
59041;DHT22;44825;53.200;6.448;2022-07-29T11:32:13;19.10;96.10
59041;DHT22;44825;53.200;6.448;2022-07-29T11:34:42;19.20;95.80
59041;DHT22;44825;53.200;6.448;2022-07-29T11:37:17;19.20;95.70
59041;DHT22;44825;53.200;6.448;2022-07-29T11:39:46;19.20;95.40
59041;DHT22;44825;53.200;6.448;2022-07-29T11:42:48;19.20;95.40
59041;DHT22;44825;53.200;6.448;2022-07-29T11:45:21;19.20;96.10
59041;DHT22;44825;53.200;6.448;2022-07-29T11:47:53;19.20;95.90
59041;DHT22;44825;53.200;6.448;2022-07-29T11:50:34;19.20;95.90
59041;DHT22;44825;53.200;6.448;2022-07-29T11:53:09;19.30;95.90
59041;DHT22;44825;53.200;6.448;2022-07-29T11:55:38;19.30;95.60
59041;DHT22;44825;53.200;6.448;2022-07-29T11:58:06;19.40;95.60
59041;DHT22;44825;53.200;6.448;2022-07-29T12:00:35;19.40;95.70
59041;DHT22;44825;53.200;6.448;2022-07-29T12:03:09;19.50;95.80
59041;DHT22;44825;53.200;6.448;2022-07-29T12:05:38;19.60;95.80
59041;DHT22;44825;53.200;6.448;2022-07-29T12:08:14;19.70;95.60
59041;DHT22;44825;53.200;6.448;2022-07-29T12:10:43;19.80;95.20
59041;DHT22;44825;53.200;6.448;2022-07-29T12:13:12;19.90;95.00
59041;DHT22;44825;53.200;6.448;2022-07-29T12:15:40;19.90;94.80
59041;DHT22;44825;53.200;6.448;2022-07-29T12:18:19;20.00;94.80
59041;DHT22;44825;53.200;6.448;2022-07-29T12:20:47;20.10;95.40
59041;DHT22;44825;53.200;6.448;2022-07-29T12:23:15;20.20;95.30
59041;DHT22;44825;53.200;6.448;2022-07-29T12:25:44;20.40;95.00
59041;DHT22;44825;53.200;6.448;2022-07-29T12:28:13;20.50;94.70
59041;DHT22;44825;53.200;6.448;2022-07-29T12:30:43;20.60;94.30
59041;DHT22;44825;53.200;6.448;2022-07-29T12:33:14;20.80;94.20
59041;DHT22;44825;53.200;6.448;2022-07-29T12:35:45;20.90;94.00
59041;DHT22;44825;53.200;6.448;2022-07-29T12:38:13;20.90;93.80
59041;DHT22;44825;53.200;6.448;2022-07-29T12:40:41;21.00;93.70
59041;DHT22;44825;53.200;6.448;2022-07-29T12:43:10;21.00;93.10
59041;DHT22;44825;53.200;6.448;2022-07-29T12:45:38;21.10;92.90
59041;DHT22;44825;53.200;6.448;2022-07-29T12:48:06;21.10;92.50
59041;DHT22;44825;53.200;6.448;2022-07-29T12:50:35;21.10;92.80
59041;DHT22;44825;53.200;6.448;2022-07-29T12:53:12;21.10;92.80
59041;DHT22;44825;53.200;6.448;2022-07-29T12:55:43;21.10;93.00
59041;DHT22;44825;53.200;6.448;2022-07-29T12:58:26;21.10;92.90
59041;DHT22;44825;53.200;6.448;2022-07-29T13:01:08;21.20;92.70
59041;DHT22;44825;53.200;6.448;2022-07-29T13:03:51;21.30;92.90
59041;DHT22;44825;53.200;6.448;2022-07-29T13:06:34;21.40;92.00
59041;DHT22;44825;53.200;6.448;2022-07-29T13:09:09;21.40;91.80
59041;DHT22;44825;53.200;6.448;2022-07-29T13:11:38;21.50;91.10
59041;DHT22;44825;53.200;6.448;2022-07-29T13:14:07;21.50;91.50
59041;DHT22;44825;53.200;6.448;2022-07-29T13:16:34;21.50;91.30
59041;DHT22;44825;53.200;6.448;2022-07-29T13:19:06;21.60;90.80
59041;DHT22;44825;53.200;6.448;2022-07-29T13:21:37;21.60;90.30
59041;DHT22;44825;53.200;6.448;2022-07-29T13:24:06;21.60;89.50
59041;DHT22;44825;53.200;6.448;2022-07-29T13:26:34;21.70;89.00
59041;DHT22;44825;53.200;6.448;2022-07-29T13:29:02;21.70;87.70
59041;DHT22;44825;53.200;6.448;2022-07-29T13:31:30;21.70;87.70
59041;DHT22;44825;53.200;6.448;2022-07-29T13:33:57;21.70;85.70
59041;DHT22;44825;53.200;6.448;2022-07-29T13:36:24;21.60;85.50
59041;DHT22;44825;53.200;6.448;2022-07-29T13:38:52;21.60;86.90
59041;DHT22;44825;53.200;6.448;2022-07-29T13:41:21;21.60;85.80
59041;DHT22;44825;53.200;6.448;2022-07-29T13:43:48;21.60;86.20
59041;DHT22;44825;53.200;6.448;2022-07-29T13:46:15;21.60;86.20
59041;DHT22;44825;53.200;6.448;2022-07-29T13:48:43;21.60;86.50
59041;DHT22;44825;53.200;6.448;2022-07-29T13:51:10;21.60;86.20
59041;DHT22;44825;53.200;6.448;2022-07-29T13:53:37;21.60;86.10
59041;DHT22;44825;53.200;6.448;2022-07-29T13:56:05;21.60;86.00
59041;DHT22;44825;53.200;6.448;2022-07-29T13:58:34;21.60;85.70
59041;DHT22;44825;53.200;6.448;2022-07-29T14:01:02;21.60;83.90
59041;DHT22;44825;53.200;6.448;2022-07-29T14:03:29;21.60;84.30
59041;DHT22;44825;53.200;6.448;2022-07-29T14:05:57;21.60;85.30
59041;DHT22;44825;53.200;6.448;2022-07-29T14:08:26;21.60;84.70
59041;DHT22;44825;53.200;6.448;2022-07-29T14:10:53;21.60;83.90
59041;DHT22;44825;53.200;6.448;2022-07-29T14:13:20;21.50;84.30
59041;DHT22;44825;53.200;6.448;2022-07-29T14:15:49;21.60;85.30
59041;DHT22;44825;53.200;6.448;2022-07-29T14:18:16;21.60;85.30
59041;DHT22;44825;53.200;6.448;2022-07-29T14:20:43;21.60;85.10
59041;DHT22;44825;53.200;6.448;2022-07-29T14:23:11;21.60;85.40
59041;DHT22;44825;53.200;6.448;2022-07-29T14:25:38;21.60;85.10
59041;DHT22;44825;53.200;6.448;2022-07-29T14:28:05;21.60;84.80
59041;DHT22;44825;53.200;6.448;2022-07-29T14:30:33;21.60;85.40
59041;DHT22;44825;53.200;6.448;2022-07-29T14:33:01;21.60;85.30
59041;DHT22;44825;53.200;6.448;2022-07-29T14:35:29;21.60;85.00
59041;DHT22;44825;53.200;6.448;2022-07-29T14:37:56;21.60;85.20
59041;DHT22;44825;53.200;6.448;2022-07-29T14:40:23;21.70;84.70
59041;DHT22;44825;53.200;6.448;2022-07-29T14:42:51;21.70;84.10
59041;DHT22;44825;53.200;6.448;2022-07-29T14:45:18;21.70;83.30
59041;DHT22;44825;53.200;6.448;2022-07-29T14:47:46;21.70;81.80
59041;DHT22;44825;53.200;6.448;2022-07-29T14:50:16;21.60;81.50
59041;DHT22;44825;53.200;6.448;2022-07-29T14:52:44;21.60;81.30
59041;DHT22;44825;53.200;6.448;2022-07-29T14:55:11;21.60;82.00
59041;DHT22;44825;53.200;6.448;2022-07-29T14:57:39;21.60;82.50
59041;DHT22;44825;53.200;6.448;2022-07-29T15:00:08;21.60;82.70
59041;DHT22;44825;53.200;6.448;2022-07-29T15:02:36;21.50;83.20
59041;DHT22;44825;53.200;6.448;2022-07-29T15:05:04;21.50;83.80
59041;DHT22;44825;53.200;6.448;2022-07-29T15:07:33;21.50;83.40
59041;DHT22;44825;53.200;6.448;2022-07-29T15:10:00;21.50;83.50
59041;DHT22;44825;53.200;6.448;2022-07-29T15:12:28;21.60;84.30
59041;DHT22;44825;53.200;6.448;2022-07-29T15:14:55;21.60;83.80
59041;DHT22;44825;53.200;6.448;2022-07-29T15:17:23;21.60;83.50
59041;DHT22;44825;53.200;6.448;2022-07-29T15:19:50;21.60;83.50
59041;DHT22;44825;53.200;6.448;2022-07-29T15:22:18;21.50;84.00
59041;DHT22;44825;53.200;6.448;2022-07-29T15:24:46;21.50;84.70
59041;DHT22;44825;53.200;6.448;2022-07-29T15:27:14;21.50;84.70
59041;DHT22;44825;53.200;6.448;2022-07-29T15:29:41;21.40;84.80
59041;DHT22;44825;53.200;6.448;2022-07-29T15:32:08;21.40;84.80
59041;DHT22;44825;53.200;6.448;2022-07-29T15:34:37;21.40;85.10
59041;DHT22;44825;53.200;6.448;2022-07-29T15:37:04;21.40;84.80
59041;DHT22;44825;53.200;6.448;2022-07-29T15:39:32;21.40;84.80
59041;DHT22;44825;53.200;6.448;2022-07-29T15:42:02;21.50;84.50
59041;DHT22;44825;53.200;6.448;2022-07-29T15:44:29;21.50;84.70
59041;DHT22;44825;53.200;6.448;2022-07-29T15:46:56;21.50;83.60
59041;DHT22;44825;53.200;6.448;2022-07-29T15:49:31;21.50;83.20